Time;durP1;ratioP1;P1;durP2;ratioP2;P2;SDS_P1;SDS_P2;PMS_P1;PMS_P2;Temp;Humidity;BMP_temperature;BMP_pressure;BME280_temperature;BME280_humidity;BME280_pressure;Samples;Min_cycle;Max_cycle;Signal;HPM_P1;HPM_P2
2021/12/24 00:02:10;;;;;;;26.20;13.50;;;;;;;-10.66;76.14;99530.13;104860;1323;22627;-57
2021/12/24 00:04:38;;;;;;;24.90;12.00;;;;;;;-10.64;76.24;99529.43;105804;1321;22423;-58
2021/12/24 00:07:06;;;;;;;28.10;12.30;;;;;;;-10.60;76.39;99522.13;105785;1321;140400;-58
2021/12/24 00:09:38;;;;;;;24.90;12.60;;;;;;;-10.57;76.26;99521.67;105838;1316;23663;-59
2021/12/24 00:12:13;;;;;;;24.30;11.90;;;;;;;-10.53;76.27;99517.81;105120;1327;142205;-58
2021/12/24 00:14:53;;;;;;;23.10;11.60;;;;;;;-10.50;76.13;99513.87;105901;1322;22452;-59
2021/12/24 00:17:27;;;;;;;26.50;11.50;;;;;;;-10.47;76.07;99510.30;106015;1316;140664;-58
2021/12/24 00:35:03;;;;;;;30.20;13.80;;;;;;;-10.42;76.09;99498.16;106120;1316;22465;-57
2021/12/24 00:37:04;;;;;;;28.40;13.10;;;;;;;-10.37;76.08;99469.02;106118;1316;140052;-56
2021/12/24 00:39:35;;;;;;;26.00;12.80;;;;;;;-10.38;75.94;99467.05;106272;1316;22612;-56
2021/12/24 00:42:03;;;;;;;26.50;12.10;;;;;;;-10.35;75.96;99463.84;106162;1315;139282;-56
2021/12/24 00:44:32;;;;;;;24.50;11.70;;;;;;;-10.34;76.03;99464.51;106244;1316;22462;-58
2021/12/24 00:47:01;;;;;;;27.30;10.50;;;;;;;-10.33;75.94;99454.70;106258;1316;22684;-56
2021/12/24 00:49:29;;;;;;;24.30;12.70;;;;;;;-10.31;75.89;99450.37;106145;1315;140074;-56
2021/12/24 00:52:18;;;;;;;23.40;11.10;;;;;;;-10.30;75.69;99442.73;106248;1315;22465;-56
2021/12/24 00:55:03;;;;;;;20.20;10.70;;;;;;;-10.30;75.82;99439.17;106164;1315;139917;-56
2021/12/24 00:57:34;;;;;;;17.60;8.80;;;;;;;-10.30;75.77;99426.20;106171;1318;22458;-56
2021/12/24 01:00:12;;;;;;;25.60;11.10;;;;;;;-10.30;75.60;99418.52;106135;1315;141090;-56
2021/12/24 01:02:40;;;;;;;23.90;11.00;;;;;;;-10.31;75.65;99413.28;106193;1316;22503;-56
2021/12/24 01:05:09;;;;;;;27.60;11.30;;;;;;;-10.29;75.73;99411.27;106229;1316;22366;-56
2021/12/24 01:07:39;;;;;;;24.10;12.90;;;;;;;-10.31;75.71;99407.84;106144;1315;139992;-56
2021/12/24 01:10:07;;;;;;;21.20;10.50;;;;;;;-10.30;75.71;99406.39;106259;1315;22459;-57
2021/12/24 01:12:35;;;;;;;23.30;11.80;;;;;;;-10.28;75.76;99406.26;106130;1319;142075;-57
2021/12/24 01:15:04;;;;;;;24.40;12.30;;;;;;;-10.29;75.50;99403.52;106236;1315;22669;-57
2021/12/24 01:26:01;;;;;;;24.10;12.10;;;;;;;-10.42;75.26;99380.23;106105;1316;138595;-57
2021/12/24 01:28:42;;;;;;;29.10;14.30;;;;;;;-10.44;75.26;99375.45;106220;1315;22439;-57
2021/12/24 01:39:52;;;;;;;;;;;;;;;-10.56;75.33;99327.30;106187;1315;22503;-57
2021/12/24 01:45:20;;;;;;;21.60;12.00;;;;;;;-10.61;75.37;99311.93;106237;1316;22392;-57
2021/12/24 01:47:52;;;;;;;25.90;12.60;;;;;;;-10.63;75.35;99308.63;106080;1316;139847;-57
2021/12/24 01:50:21;;;;;;;22.30;12.20;;;;;;;-10.64;75.38;99304.31;106138;1317;22591;-58
2021/12/24 01:52:54;;;;;;;26.60;10.60;;;;;;;-10.66;75.55;99301.28;106226;1316;22449;-58
2021/12/24 01:55:23;;;;;;;22.00;10.50;;;;;;;-10.69;75.43;99291.95;105932;1313;201336;-57
2021/12/24 01:57:51;;;;;;;25.70;10.90;;;;;;;-10.69;75.66;99293.70;106237;1316;22411;-58
2021/12/24 02:00:25;;;;;;;20.70;11.10;;;;;;;-10.71;75.61;99285.98;106138;1315;140253;-58
2021/12/24 02:02:54;;;;;;;22.00;10.90;;;;;;;-10.73;75.74;99278.54;106212;1316;22474;-58
2021/12/24 02:05:23;;;;;;;21.20;10.40;;;;;;;-10.74;75.52;99271.28;106272;1316;22421;-57
2021/12/24 02:07:52;;;;;;;22.10;11.20;;;;;;;-10.75;75.51;99266.80;106127;1316;140379;-57
2021/12/24 02:10:20;;;;;;;22.50;11.40;;;;;;;-10.78;75.47;99257.89;106216;1316;22562;-56
2021/12/24 02:12:49;;;;;;;19.40;9.90;;;;;;;-10.78;75.83;99252.54;106077;1321;140905;-57
2021/12/24 02:18:45;;;;;;;23.20;11.60;;;;;;;-10.82;75.61;99245.44;106110;1316;138873;-57
2021/12/24 02:29:29;;;;;;;16.50;9.80;;;;;;;-10.85;75.81;99228.20;106218;1316;22415;-58
2021/12/24 02:31:57;;;;;;;19.90;9.70;;;;;;;-10.85;75.78;99224.52;106097;1322;139493;-57
2021/12/24 02:34:25;;;;;;;21.20;10.20;;;;;;;-10.85;75.79;99221.36;106249;1315;22580;-58
2021/12/24 02:36:53;;;;;;;21.30;10.80;;;;;;;-10.86;75.74;99216.84;106118;1315;141026;-57
2021/12/24 02:39:21;;;;;;;21.30;10.10;;;;;;;-10.85;75.78;99215.43;106272;1319;23361;-57
2021/12/24 02:41:49;;;;;;;15.80;9.20;;;;;;;-10.87;75.78;99212.40;106143;1317;141882;-58
2021/12/24 02:44:19;;;;;;;22.80;11.60;;;;;;;-10.87;75.80;99209.91;106173;1315;22584;-57
2021/12/24 02:47:09;;;;;;;24.10;11.30;;;;;;;-10.87;75.94;99205.20;106175;1315;23348;-57
2021/12/24 02:55:04;;;;;;;17.80;10.20;;;;;;;-10.84;75.83;99188.66;106128;1315;140236;-58
2021/12/24 02:57:34;;;;;;;18.00;10.30;;;;;;;-10.84;75.91;99188.83;106236;1320;22502;-58
2021/12/24 03:00:07;;;;;;;19.90;10.30;;;;;;;-10.84;76.14;99186.01;106030;1316;139694;-58
2021/12/24 03:02:37;;;;;;;19.60;10.00;;;;;;;-10.84;76.09;99180.60;106254;1319;22397;-58
2021/12/24 03:05:06;;;;;;;22.30;10.10;;;;;;;-10.84;75.99;99178.48;106176;1315;22423;-58
2021/12/24 03:07:37;;;;;;;25.40;11.70;;;;;;;-10.84;75.97;99172.99;106103;1316;140750;-58
2021/12/24 03:10:11;;;;;;;19.80;10.90;;;;;;;-10.84;76.06;99170.73;106235;1316;24293;-58
2021/12/24 03:12:39;;;;;;;20.10;11.40;;;;;;;-10.84;76.07;99164.79;106040;1316;139008;-58
2021/12/24 03:15:07;;;;;;;23.80;11.50;;;;;;;-10.85;75.84;99152.46;106275;1316;22523;-58
2021/12/24 03:17:37;;;;;;;17.60;9.40;;;;;;;-10.86;76.15;99142.52;106178;1316;139712;-59
2021/12/24 03:20:09;;;;;;;21.60;10.60;;;;;;;-10.84;76.36;99135.36;106217;1315;22471;-59
2021/12/24 03:23:04;;;;;;;19.90;10.30;;;;;;;-10.86;76.15;99128.83;106244;1316;22516;-59
2021/12/24 03:25:33;;;;;;;17.70;9.90;;;;;;;-10.86;76.16;99124.84;106111;1316;138954;-59
2021/12/24 03:28:00;;;;;;;22.50;11.10;;;;;;;-10.86;76.11;99124.98;106195;1316;23159;-59
2021/12/24 03:30:28;;;;;;;22.10;10.90;;;;;;;-10.86;76.17;99117.97;106171;1320;140112;-59
2021/12/24 03:32:56;;;;;;;25.60;11.70;;;;;;;-10.87;76.27;99109.08;106217;1316;23434;-58
2021/12/24 03:35:24;;;;;;;23.60;10.80;;;;;;;-10.86;76.39;99100.80;102183;1316;24164;-57
2021/12/24 03:37:54;;;;;;;20.60;9.70;;;;;;;-10.86;76.41;99099.01;101909;1320;138883;-55
2021/12/24 03:40:22;;;;;;;23.40;10.50;;;;;;;-10.86;76.33;99096.38;101899;1320;24270;-57
2021/12/24 03:42:50;;;;;;;20.60;10.80;;;;;;;-10.85;76.43;99090.73;101870;1320;139292;-58
2021/12/24 03:45:25;;;;;;;22.20;11.60;;;;;;;-10.84;76.27;99089.77;102035;1319;24399;-57
2021/12/24 03:48:01;;;;;;;21.80;10.40;;;;;;;-10.85;76.32;99084.34;101899;1316;139972;-57
2021/12/24 03:50:57;;;;;;;24.00;10.90;;;;;;;-10.85;76.27;99082.41;106091;1318;22490;-59
2021/12/24 03:56:15;;;;;;;22.00;11.70;;;;;;;-10.84;76.58;99069.58;106041;1322;139761;-59
2021/12/24 03:58:43;;;;;;;25.80;13.30;;;;;;;-10.84;76.62;99065.20;106243;1316;22490;-59
2021/12/24 04:01:33;;;;;;;22.50;13.00;;;;;;;-10.84;76.39;99055.17;106150;1319;140450;-59
2021/12/24 04:04:20;;;;;;;19.70;10.50;;;;;;;-10.85;76.52;99052.96;106278;1316;22642;-59
2021/12/24 04:07:08;;;;;;;26.30;13.80;;;;;;;-10.87;76.58;99046.80;102716;1316;141662;-57
2021/12/24 04:10:05;;;;;;;22.60;12.10;;;;;;;-10.87;76.77;99042.79;101868;1317;22604;-58
2021/12/24 04:12:58;;;;;;;22.30;11.80;;;;;;;-10.85;76.48;99037.86;106157;1315;140824;-58
2021/12/24 04:15:26;;;;;;;24.20;11.50;;;;;;;-10.84;76.71;99029.20;106265;1316;22492;-58
2021/12/24 04:17:54;;;;;;;23.30;12.50;;;;;;;-10.86;76.54;99023.41;106136;1316;139042;-58
2021/12/24 04:25:56;;;;;;;19.00;10.50;;;;;;;-10.85;76.36;99004.77;106136;1316;126051;-57
2021/12/24 04:28:41;;;;;;;30.30;14.00;;;;;;;-10.87;76.48;99001.36;106220;1322;22499;-57
2021/12/24 04:31:09;;;;;;;27.50;14.60;;;;;;;-10.87;76.63;98994.95;106138;1316;138826;-57
2021/12/24 04:33:45;;;;;;;29.90;12.70;;;;;;;-10.88;76.47;98989.19;106139;1316;23225;-57
2021/12/24 05:01:16;;;;;;;29.30;12.80;;;;;;;-10.99;76.84;98952.18;106192;1315;22460;-59
2021/12/24 05:04:26;;;;;;;43.90;18.60;;;;;;;-11.02;76.97;98942.95;106061;1325;22616;-58
2021/12/24 05:07:03;;;;;;;51.70;22.70;;;;;;;-11.04;77.00;98940.12;105858;1326;139128;-59
2021/12/24 05:09:32;;;;;;;62.90;23.80;;;;;;;-11.03;76.89;98927.34;106101;1325;22353;-59
2021/12/24 05:12:00;;;;;;;55.10;20.00;;;;;;;-11.03;77.04;98927.28;105973;1318;140575;-59
2021/12/24 05:14:31;;;;;;;42.50;17.50;;;;;;;-11.04;77.25;98920.33;105893;1319;22528;-59
2021/12/24 05:22:58;;;;;;;29.50;14.00;;;;;;;-10.99;77.05;98920.82;106038;1325;22312;-58
2021/12/24 05:25:26;;;;;;;30.10;15.90;;;;;;;-10.99;77.01;98916.77;105546;1319;138952;-58
2021/12/24 05:27:55;;;;;;;25.80;14.40;;;;;;;-11.00;77.08;98913.84;106097;1325;22568;-58
2021/12/24 05:30:24;;;;;;;26.00;13.40;;;;;;;-10.99;77.28;98911.69;106001;1325;140059;-58
2021/12/24 05:32:51;;;;;;;28.70;14.30;;;;;;;-10.98;76.90;98910.94;106100;1325;23113;-58
2021/12/24 05:35:19;;;;;;;27.30;12.60;;;;;;;-11.00;77.16;98905.79;105862;1326;22437;-58
2021/12/24 05:37:47;;;;;;;26.60;13.90;;;;;;;-10.98;77.25;98903.16;105992;1324;140070;-59
2021/12/24 05:40:15;;;;;;;21.20;11.80;;;;;;;-10.98;77.26;98901.39;106113;1319;23072;-58
2021/12/24 05:42:44;;;;;;;21.30;12.00;;;;;;;-10.98;77.40;98901.41;106086;1316;140052;-58
2021/12/24 05:45:12;;;;;;;25.30;12.80;;;;;;;-10.96;77.31;98901.77;106359;1322;22263;-58
2021/12/24 05:48:03;;;;;;;27.20;13.30;;;;;;;-10.93;77.44;98906.71;106159;1316;141081;-58
2021/12/24 05:50:31;;;;;;;31.20;16.90;;;;;;;-10.91;77.35;98904.06;106188;1316;23064;-60
2021/12/24 05:53:34;;;;;;;27.00;13.50;;;;;;;-10.85;77.50;98904.10;106196;1322;22388;-59
2021/12/24 05:56:11;;;;;;;26.00;12.50;;;;;;;-10.82;77.55;98901.49;106194;1316;139506;-59
2021/12/24 05:59:19;;;;;;;24.90;12.90;;;;;;;-10.76;77.50;98900.30;99505;1351;545102;-56
2021/12/24 06:01:47;;;;;;;24.20;13.00;;;;;;;-10.77;77.39;98900.13;100926;1333;138273;-58
2021/12/24 06:04:15;;;;;;;22.20;11.90;;;;;;;-10.74;77.42;98902.19;104921;1331;23847;-57
2021/12/24 06:06:44;;;;;;;32.50;17.00;;;;;;;-10.72;77.68;98897.59;104846;1333;138174;-57
2021/12/24 06:09:12;;;;;;;22.50;12.30;;;;;;;-10.69;77.51;98894.71;105855;1325;22475;-57
2021/12/24 06:11:39;;;;;;;27.00;13.00;;;;;;;-10.66;77.69;98891.29;105684;1324;22439;-56
2021/12/24 06:14:11;;;;;;;29.40;15.00;;;;;;;-10.63;77.89;98889.93;105853;1318;148768;-57
2021/12/24 06:16:59;;;;;;;33.70;15.60;;;;;;;-10.59;77.84;98884.20;106142;1319;22450;-58
2021/12/24 06:19:30;;;;;;;34.20;13.70;;;;;;;-10.57;77.67;98877.27;106000;1318;139202;-58
2021/12/24 06:21:58;;;;;;;26.00;12.50;;;;;;;-10.54;77.64;98870.04;105716;1319;23218;-57
2021/12/24 06:24:26;;;;;;;25.00;13.50;;;;;;;-10.51;77.98;98862.04;106014;1318;140162;-57
2021/12/24 06:26:54;;;;;;;32.50;14.80;;;;;;;-10.50;77.94;98854.67;105981;1318;22424;-57
2021/12/24 06:29:22;;;;;;;38.70;17.70;;;;;;;-10.47;77.88;98854.64;106119;1318;23766;-56
2021/12/24 06:31:50;;;;;;;39.70;17.30;;;;;;;-10.45;77.94;98849.55;105959;1318;138537;-57
2021/12/24 06:34:18;;;;;;;46.90;18.10;;;;;;;-10.42;77.91;98852.04;106075;1318;22379;-57
2021/12/24 06:36:48;;;;;;;33.90;15.40;;;;;;;-10.37;77.99;98849.98;103196;1319;138607;-58
2021/12/24 06:39:16;;;;;;;41.00;17.80;;;;;;;-10.32;77.99;98848.32;101649;1319;22569;-56
2021/12/24 06:41:44;;;;;;;31.10;14.90;;;;;;;-10.29;77.86;98843.27;105896;1318;23156;-56
2021/12/24 06:44:13;;;;;;;37.90;15.60;;;;;;;-10.25;78.08;98836.95;105952;1319;138877;-57
2021/12/24 06:46:41;;;;;;;35.20;17.40;;;;;;;-10.21;78.19;98829.84;105877;1318;24636;-57
2021/12/24 06:49:09;;;;;;;36.10;15.80;;;;;;;-10.18;77.94;98820.05;105949;1318;139034;-57
2021/12/24 06:51:37;;;;;;;56.30;21.50;;;;;;;-10.12;78.09;98815.33;106049;1319;23560;-58
2021/12/24 06:54:05;;;;;;;42.60;18.10;;;;;;;-10.09;77.99;98809.89;105967;1318;138948;-58
2021/12/24 06:56:34;;;;;;;34.90;15.80;;;;;;;-10.06;77.99;98807.32;105994;1322;22411;-57
2021/12/24 06:59:03;;;;;;;31.60;15.10;;;;;;;-10.02;78.25;98805.02;105921;1322;22570;-57
2021/12/24 07:01:31;;;;;;;29.70;14.70;;;;;;;-9.99;78.23;98792.97;105817;1322;140270;-58
2021/12/24 07:03:59;;;;;;;25.30;13.80;;;;;;;-9.97;78.16;98786.64;105990;1323;23355;-58
2021/12/24 07:06:28;;;;;;;39.00;17.90;;;;;;;-9.95;78.27;98783.66;105991;1318;138496;-58
2021/12/24 07:08:56;;;;;;;32.60;15.00;;;;;;;-9.94;78.09;98776.31;106059;1319;22574;-58
2021/12/24 07:11:24;;;;;;;30.50;14.20;;;;;;;-9.90;78.22;98768.45;105983;1322;22494;-58
2021/12/24 07:13:53;;;;;;;34.80;16.00;;;;;;;-9.86;78.23;98758.41;105928;1319;139615;-58
2021/12/24 07:16:21;;;;;;;27.30;14.00;;;;;;;-9.83;78.22;98750.37;105990;1319;23616;-58
2021/12/24 07:18:48;;;;;;;36.60;15.20;;;;;;;-9.80;78.45;98746.64;105993;1319;139727;-58
2021/12/24 07:21:36;;;;;;;24.30;12.20;;;;;;;-9.74;78.23;98751.02;106200;1315;22442;-58
2021/12/24 07:24:06;;;;;;;32.70;13.60;;;;;;;-9.70;78.34;98749.09;106115;1315;139589;-58
2021/12/24 07:26:34;;;;;;;26.60;13.20;;;;;;;-9.67;78.43;98748.09;106226;1315;22417;-58
2021/12/24 07:29:02;;;;;;;36.00;16.60;;;;;;;-9.62;78.49;98745.87;106225;1314;22410;-58
2021/12/24 07:31:30;;;;;;;35.70;17.20;;;;;;;-9.57;78.60;98743.06;106143;1316;139243;-58
2021/12/24 07:34:01;;;;;;;33.10;16.80;;;;;;;-9.52;78.64;98736.02;106220;1315;22667;-57
2021/12/24 07:36:30;;;;;;;26.10;13.30;;;;;;;-9.46;78.62;98728.04;103922;1315;138642;-56
2021/12/24 07:38:58;;;;;;;28.20;13.90;;;;;;;-9.42;78.60;98723.30;102139;1315;24470;-57
2021/12/24 07:41:26;;;;;;;24.20;13.10;;;;;;;-9.37;78.69;98716.98;102222;1316;25380;-56
2021/12/24 07:43:55;;;;;;;24.70;12.50;;;;;;;-9.33;78.53;98711.11;102029;1315;138568;-59
2021/12/24 07:46:30;;;;;;;27.40;13.60;;;;;;;-9.28;78.59;98711.35;102254;1315;24407;-57
2021/12/24 07:49:11;;;;;;;23.30;12.30;;;;;;;-9.22;78.69;98703.93;102048;1315;138486;-58
2021/12/24 07:52:00;;;;;;;24.70;12.30;;;;;;;-9.18;78.80;98696.78;102271;1315;23434;-58
2021/12/24 07:54:29;;;;;;;22.20;11.90;;;;;;;-9.13;78.83;98685.25;102088;1320;139439;-59
2021/12/24 07:56:58;;;;;;;24.80;12.50;;;;;;;-9.10;78.71;98680.89;102134;1315;23526;-58
2021/12/24 07:59:38;;;;;;;26.20;11.90;;;;;;;-9.05;78.70;98677.73;102292;1316;22589;-56
2021/12/24 08:02:10;;;;;;;20.00;10.80;;;;;;;-9.02;78.78;98677.20;102152;1316;139514;-58
2021/12/24 08:04:39;;;;;;;27.40;12.50;;;;;;;-8.99;78.65;98672.72;106185;1316;22429;-57
2021/12/24 08:07:07;;;;;;;24.10;13.00;;;;;;;-8.97;78.52;98670.00;106117;1316;138528;-57
2021/12/24 08:09:37;;;;;;;23.10;13.10;;;;;;;-8.95;78.46;98660.53;105110;1323;22564;-57
2021/12/24 08:12:06;;;;;;;25.00;13.40;;;;;;;-8.92;78.52;98656.52;106118;1315;139983;-58
2021/12/24 08:14:34;;;;;;;23.40;13.30;;;;;;;-8.88;78.65;98652.92;106246;1319;22514;-57
2021/12/24 08:17:03;;;;;;;24.20;12.20;;;;;;;-8.83;78.58;98649.98;106253;1316;22996;-57
2021/12/24 08:19:31;;;;;;;25.70;12.30;;;;;;;-8.78;78.57;98642.08;106123;1316;138365;-58
2021/12/24 08:21:59;;;;;;;27.40;11.40;;;;;;;-8.71;78.61;98632.02;106213;1316;22576;-58
2021/12/24 08:24:27;;;;;;;20.90;11.30;;;;;;;-8.66;78.75;98628.09;106124;1315;138734;-58
2021/12/24 08:26:55;;;;;;;19.10;10.80;;;;;;;-8.60;78.63;98622.56;106149;1315;22652;-57
2021/12/24 08:29:23;;;;;;;30.80;16.30;;;;;;;-8.54;78.66;98619.53;106226;1315;23204;-58
2021/12/24 08:31:51;;;;;;;37.80;19.70;;;;;;;-8.49;78.62;98613.33;106126;1316;139847;-57
2021/12/24 08:34:19;;;;;;;40.00;20.30;;;;;;;-8.43;78.74;98610.91;106161;1315;22680;-58
2021/12/24 08:36:48;;;;;;;28.50;14.10;;;;;;;-8.35;78.84;98607.47;106166;1315;138630;-58
2021/12/24 08:39:17;;;;;;;31.80;13.30;;;;;;;-8.30;78.67;98602.98;106192;1315;22264;-56
2021/12/24 08:41:45;;;;;;;26.20;11.40;;;;;;;-8.23;78.53;98594.83;106045;1319;23104;-57
2021/12/24 08:44:13;;;;;;;23.00;11.10;;;;;;;-8.18;78.41;98586.73;106120;1316;139267;-58
2021/12/24 08:46:41;;;;;;;20.50;11.60;;;;;;;-8.12;78.46;98573.64;106213;1315;22384;-57
2021/12/24 08:49:11;;;;;;;21.40;11.20;;;;;;;-8.07;78.46;98564.30;106115;1315;139955;-57
2021/12/24 08:51:39;;;;;;;22.80;12.40;;;;;;;-8.02;78.51;98558.79;106235;1312;23762;-58
2021/12/24 08:54:06;;;;;;;21.70;11.00;;;;;;;-7.97;78.57;98554.70;106115;1316;138676;-58
2021/12/24 08:56:35;;;;;;;21.40;11.40;;;;;;;-7.91;78.34;98546.17;106271;1316;22579;-58
2021/12/24 08:59:04;;;;;;;22.30;12.00;;;;;;;-7.87;78.27;98537.61;102721;1315;24318;-57
2021/12/24 09:01:32;;;;;;;20.20;10.70;;;;;;;-7.84;78.03;98529.16;102155;1316;139485;-56
2021/12/24 09:04:08;;;;;;;23.90;12.10;;;;;;;-7.80;78.14;98523.52;102199;1316;25154;-57
2021/12/24 09:06:37;;;;;;;27.80;14.80;;;;;;;-7.77;78.00;98520.52;102027;1315;139563;-56
2021/12/24 09:09:06;;;;;;;28.30;13.50;;;;;;;-7.75;78.09;98514.08;102127;1317;24979;-57
2021/12/24 09:11:35;;;;;;;27.20;14.30;;;;;;;-7.71;78.17;98506.98;102114;1316;22697;-57
2021/12/24 09:14:03;;;;;;;24.90;12.80;;;;;;;-7.66;78.25;98499.01;102003;1316;139651;-57
2021/12/24 09:16:50;;;;;;;23.50;12.50;;;;;;;-7.61;78.19;98489.83;102357;1315;22780;-65
2021/12/24 09:19:23;;;;;;;20.10;11.90;;;;;;;-7.57;78.13;98476.83;102231;1316;138570;-66
2021/12/24 09:21:52;;;;;;;21.80;12.40;;;;;;;-7.53;78.38;98471.08;102227;1316;25094;-66
2021/12/24 09:24:24;;;;;;;26.30;14.20;;;;;;;-7.47;78.23;98458.98;101980;1315;139112;-66
2021/12/24 09:26:56;;;;;;;23.70;12.90;;;;;;;-7.43;78.18;98451.88;106192;1315;22529;-67
2021/12/24 09:29:24;;;;;;;21.90;11.30;;;;;;;-7.39;78.13;98443.98;106204;1316;22269;-67
2021/12/24 09:31:53;;;;;;;28.70;15.90;;;;;;;-7.35;78.19;98442.45;106075;1315;139133;-66
2021/12/24 09:34:21;;;;;;;23.90;13.40;;;;;;;-7.29;78.28;98434.55;106190;1318;22464;-67
2021/12/24 09:36:49;;;;;;;31.60;16.60;;;;;;;-7.23;78.06;98436.05;106095;1315;139304;-66
2021/12/24 09:39:18;;;;;;;33.60;14.80;;;;;;;-7.17;77.99;98433.20;105683;1318;22479;-67
2021/12/24 09:41:46;;;;;;;31.30;14.50;;;;;;;-7.12;77.87;98428.27;105054;1325;22438;-63
2021/12/24 09:44:14;;;;;;;28.60;13.30;;;;;;;-7.08;77.91;98418.16;106112;1315;139783;-65
2021/12/24 09:46:43;;;;;;;26.40;12.60;;;;;;;-7.07;77.97;98408.95;106252;1316;22636;-67
2021/12/24 09:49:12;;;;;;;36.20;18.40;;;;;;;-7.03;77.94;98401.48;106125;1315;138799;-67
2021/12/24 09:51:45;;;;;;;26.30;12.90;;;;;;;-7.00;78.04;98399.05;106250;1316;22371;-67
2021/12/24 09:54:15;;;;;;;20.20;11.50;;;;;;;-6.96;78.05;98389.04;106084;1315;139625;-67
2021/12/24 09:56:43;;;;;;;20.00;12.50;;;;;;;-6.93;78.19;98390.77;106210;1315;23646;-66
2021/12/24 09:59:11;;;;;;;22.00;10.70;;;;;;;-6.88;78.34;98386.86;106221;1315;22489;-66
2021/12/24 10:01:43;;;;;;;23.60;13.40;;;;;;;-6.84;78.48;98385.38;106138;1319;138623;-64
2021/12/24 10:04:13;;;;;;;20.90;12.20;;;;;;;-6.81;78.58;98383.41;106244;1315;22501;-65
2021/12/24 10:06:56;;;;;;;20.00;12.60;;;;;;;-6.78;78.78;98373.00;106148;1316;138691;-65
2021/12/24 10:09:32;;;;;;;23.60;14.60;;;;;;;-6.76;78.86;98364.07;106260;1317;22549;-65
2021/12/24 10:12:02;;;;;;;19.70;11.90;;;;;;;-6.73;78.95;98352.63;106103;1317;138645;-65
2021/12/24 10:14:57;;;;;;;24.10;13.00;;;;;;;-6.69;79.09;98347.48;106238;1316;22217;-65
2021/12/24 10:17:30;;;;;;;22.50;12.20;;;;;;;-6.64;79.16;98343.99;102460;1317;22590;-64
2021/12/24 10:20:09;;;;;;;20.10;12.00;;;;;;;-6.60;79.19;98343.92;102134;1316;138806;-66
2021/12/24 10:22:48;;;;;;;22.40;12.80;;;;;;;-6.57;79.22;98344.79;106204;1316;23345;-66
2021/12/24 10:25:16;;;;;;;21.50;12.00;;;;;;;-6.56;79.25;98332.30;106115;1315;139131;-66
2021/12/24 10:27:44;;;;;;;22.80;13.40;;;;;;;-6.54;79.22;98326.95;106237;1320;22474;-66
2021/12/24 10:30:16;;;;;;;24.20;12.80;;;;;;;-6.52;79.29;98319.42;106077;1316;140922;-66
2021/12/24 10:32:48;;;;;;;16.10;11.30;;;;;;;-6.50;79.19;98309.70;106257;1315;22475;-65
2021/12/24 10:35:21;;;;;;;19.50;11.90;;;;;;;-6.49;79.39;98306.02;106247;1315;23540;-66
2021/12/24 10:38:25;;;;;;;21.40;11.30;;;;;;;-6.46;79.37;98293.83;106148;1315;138847;-65
2021/12/24 10:40:55;;;;;;;23.40;13.70;;;;;;;-6.43;79.41;98285.20;105452;1325;22520;-66
2021/12/24 10:43:36;;;;;;;26.10;14.00;;;;;;;-6.42;79.37;98273.42;105445;1323;139822;-68
2021/12/24 10:46:19;;;;;;;22.20;12.40;;;;;;;-6.42;79.39;98262.06;105539;1323;22440;-67
2021/12/24 10:49:06;;;;;;;20.40;10.90;;;;;;;-6.42;79.33;98259.65;105414;1324;140003;-67
2021/12/24 10:51:57;;;;;;;25.40;13.60;;;;;;;-6.42;79.34;98256.80;105531;1328;22414;-67
2021/12/24 10:54:27;;;;;;;24.70;13.00;;;;;;;-6.41;79.49;98252.95;105460;1324;139758;-67
2021/12/24 10:57:15;;;;;;;18.70;10.90;;;;;;;-6.37;79.54;98251.50;105398;1324;23112;-67
2021/12/24 10:59:44;;;;;;;18.80;11.40;;;;;;;-6.36;79.56;98251.85;105541;1324;22545;-67
2021/12/24 11:02:12;;;;;;;21.40;12.80;;;;;;;-6.35;79.61;98249.23;105439;1328;138846;-65
2021/12/24 11:04:40;;;;;;;21.00;12.00;;;;;;;-6.33;79.53;98242.48;105526;1324;22562;-65
2021/12/24 11:07:41;;;;;;;25.40;13.80;;;;;;;-6.31;79.57;98235.83;105392;1322;139467;-65
2021/12/24 11:10:14;;;;;;;21.80;11.50;;;;;;;-6.29;79.58;98223.83;105556;1327;22898;-65
2021/12/24 11:12:44;;;;;;;23.30;13.10;;;;;;;-6.28;79.41;98220.52;105445;1324;139462;-65
2021/12/24 11:15:19;;;;;;;23.20;13.20;;;;;;;-6.28;79.40;98227.80;105806;1324;22501;-65
2021/12/24 11:17:48;;;;;;;21.70;11.60;;;;;;;-6.30;79.53;98225.66;106277;1315;22316;-66
2021/12/24 11:20:16;;;;;;;23.70;12.70;;;;;;;-6.31;79.60;98219.67;106131;1315;138451;-65
2021/12/24 11:22:50;;;;;;;24.10;12.30;;;;;;;-6.31;79.66;98211.20;106228;1316;22425;-65
2021/12/24 11:25:18;;;;;;;29.10;17.00;;;;;;;-6.30;79.71;98209.14;106123;1316;138825;-66
2021/12/24 11:27:47;;;;;;;21.90;13.30;;;;;;;-6.30;79.65;98212.91;106174;1315;22461;-66
2021/12/24 11:30:17;;;;;;;25.10;14.00;;;;;;;-6.28;79.71;98221.20;106181;1315;139321;-66
2021/12/24 11:32:45;;;;;;;18.50;12.40;;;;;;;-6.25;79.78;98217.14;105892;1315;23818;-66
2021/12/24 11:35:13;;;;;;;26.40;14.40;;;;;;;-6.21;80.02;98211.89;106245;1316;22502;-67
2021/12/24 11:37:44;;;;;;;24.50;13.90;;;;;;;-6.18;79.85;98202.36;106162;1316;138803;-66
2021/12/24 11:40:16;;;;;;;33.10;17.90;;;;;;;-6.17;79.90;98199.66;106276;1315;22479;-66
2021/12/24 11:42:49;;;;;;;43.90;27.60;;;;;;;-6.14;79.95;98190.02;106193;1316;138771;-66
2021/12/24 11:45:19;;;;;;;33.20;17.30;;;;;;;-6.12;79.80;98183.45;106337;1316;22343;-66
2021/12/24 11:47:47;;;;;;;66.40;22.30;;;;;;;-6.12;79.94;98177.25;106260;1316;22389;-66
2021/12/24 11:50:16;;;;;;;28.10;16.40;;;;;;;-6.12;79.90;98179.83;106206;1315;138449;-66
2021/12/24 11:52:48;;;;;;;37.40;20.00;;;;;;;-6.13;79.86;98172.89;106378;1315;23568;-66
2021/12/24 11:55:17;;;;;;;43.10;20.90;;;;;;;-6.13;79.80;98173.81;106122;1319;139155;-66
2021/12/24 11:57:50;;;;;;;33.40;16.80;;;;;;;-6.13;79.92;98168.14;106310;1317;22534;-66
2021/12/24 12:00:27;;;;;;;27.10;14.10;;;;;;;-6.13;80.08;98166.15;106194;1315;138844;-66
2021/12/24 12:02:55;;;;;;;25.90;13.30;;;;;;;-6.13;80.13;98165.10;106331;1319;25205;-66
2021/12/24 12:05:32;;;;;;;21.70;13.50;;;;;;;-6.11;80.15;98166.70;106326;1315;22641;-66
2021/12/24 12:08:30;;;;;;;22.50;12.90;;;;;;;-6.11;80.19;98158.05;106192;1315;139005;-66
2021/12/24 12:11:13;;;;;;;22.10;12.20;;;;;;;-6.09;80.24;98152.13;105280;1322;22308;-66
2021/12/24 12:13:50;;;;;;;23.00;14.00;;;;;;;-6.09;80.28;98148.98;105370;1324;139451;-66
2021/12/24 12:16:42;;;;;;;26.00;12.80;;;;;;;-6.08;80.43;98144.86;105486;1324;22956;-61
2021/12/24 12:19:15;;;;;;;108.70;46.50;;;;;;;-6.04;80.61;98137.77;105375;1322;138909;-61
2021/12/24 12:22:12;;;;;;;76.00;30.10;;;;;;;-6.00;80.61;98136.44;105457;1328;22419;-61
2021/12/24 12:24:57;;;;;;;72.50;27.00;;;;;;;-5.96;80.50;98137.07;105382;1324;140487;-62
2021/12/24 12:27:44;;;;;;;109.20;39.00;;;;;;;-5.92;80.49;98133.44;105457;1323;22617;-62
2021/12/24 12:30:21;;;;;;;83.10;30.80;;;;;;;-5.88;80.59;98129.13;105347;1324;139604;-62
2021/12/24 12:32:52;;;;;;;86.90;31.60;;;;;;;-5.83;80.66;98127.02;105473;1329;22404;-63
2021/12/24 12:35:32;;;;;;;45.50;21.20;;;;;;;-5.82;80.62;98134.05;105450;1323;22504;-63
2021/12/24 12:38:00;;;;;;;53.50;23.80;;;;;;;-5.80;80.44;98137.74;105339;1328;139620;-63
2021/12/24 12:40:31;;;;;;;70.10;31.60;;;;;;;-5.79;80.46;98145.91;105224;1323;22434;-63
2021/12/24 12:43:09;;;;;;;48.30;23.90;;;;;;;-5.77;80.63;98146.70;105328;1326;138778;-63
2021/12/24 12:45:38;;;;;;;80.20;32.50;;;;;;;-5.74;80.63;98149.27;105296;1324;23213;-63
2021/12/24 12:48:08;;;;;;;90.30;38.90;;;;;;;-5.71;80.72;98143.46;105676;1324;140427;-62
2021/12/24 12:50:40;;;;;;;55.30;24.10;;;;;;;-5.70;80.71;98135.06;106291;1315;22462;-62
2021/12/24 12:53:39;;;;;;;52.50;26.90;;;;;;;-5.69;80.73;98113.70;106153;1317;23056;-62
2021/12/24 12:56:11;;;;;;;66.60;32.10;;;;;;;-5.68;80.88;98105.30;106041;1316;139810;-61
2021/12/24 12:58:40;;;;;;;52.80;26.50;;;;;;;-5.67;80.88;98102.17;105501;1321;23443;-61